sensor_id;sensor_type;location;lat;lon;timestamp;temperature;humidity
5578;DHT22;2811;51.900;10.734;2022-10-26T00:01:21;9.30;99.90
5578;DHT22;2811;51.900;10.734;2022-10-26T00:03:48;9.20;99.90
5578;DHT22;2811;51.900;10.734;2022-10-26T00:06:17;9.30;99.90
5578;DHT22;2811;51.900;10.734;2022-10-26T00:08:44;9.30;99.90
5578;DHT22;2811;51.900;10.734;2022-10-26T00:11:12;9.40;99.90
5578;DHT22;2811;51.900;10.734;2022-10-26T00:13:39;9.40;99.90
5578;DHT22;2811;51.900;10.734;2022-10-26T00:16:09;9.40;99.90
5578;DHT22;2811;51.900;10.734;2022-10-26T00:18:37;9.40;99.90
5578;DHT22;2811;51.900;10.734;2022-10-26T00:21:04;9.40;99.90
5578;DHT22;2811;51.900;10.734;2022-10-26T00:23:31;9.40;99.90
5578;DHT22;2811;51.900;10.734;2022-10-26T00:25:59;9.40;99.90
5578;DHT22;2811;51.900;10.734;2022-10-26T00:28:25;9.40;99.90
5578;DHT22;2811;51.900;10.734;2022-10-26T00:30:53;9.50;99.90
5578;DHT22;2811;51.900;10.734;2022-10-26T00:33:21;9.40;99.90
5578;DHT22;2811;51.900;10.734;2022-10-26T00:35:51;9.30;99.90
5578;DHT22;2811;51.900;10.734;2022-10-26T00:38:18;9.30;99.90
5578;DHT22;2811;51.900;10.734;2022-10-26T00:40:45;9.30;99.90
5578;DHT22;2811;51.900;10.734;2022-10-26T00:43:14;9.30;99.90
5578;DHT22;2811;51.900;10.734;2022-10-26T00:45:42;9.30;99.90
5578;DHT22;2811;51.900;10.734;2022-10-26T00:48:16;9.30;99.90
5578;DHT22;2811;51.900;10.734;2022-10-26T00:50:47;9.30;99.90
5578;DHT22;2811;51.900;10.734;2022-10-26T00:53:14;9.30;99.90
5578;DHT22;2811;51.900;10.734;2022-10-26T00:55:45;9.40;99.90
5578;DHT22;2811;51.900;10.734;2022-10-26T00:58:12;9.50;99.90
5578;DHT22;2811;51.900;10.734;2022-10-26T01:00:40;9.60;99.90
5578;DHT22;2811;51.900;10.734;2022-10-26T01:03:08;9.70;99.90
5578;DHT22;2811;51.900;10.734;2022-10-26T01:05:37;9.60;99.90
5578;DHT22;2811;51.900;10.734;2022-10-26T01:08:07;9.60;99.90
5578;DHT22;2811;51.900;10.734;2022-10-26T01:10:36;9.60;99.90
5578;DHT22;2811;51.900;10.734;2022-10-26T01:13:04;9.60;99.90
5578;DHT22;2811;51.900;10.734;2022-10-26T01:15:38;9.50;99.90
5578;DHT22;2811;51.900;10.734;2022-10-26T01:18:14;9.60;99.90
5578;DHT22;2811;51.900;10.734;2022-10-26T01:21:06;9.60;99.90
5578;DHT22;2811;51.900;10.734;2022-10-26T01:23:46;9.60;99.90
5578;DHT22;2811;51.900;10.734;2022-10-26T01:26:41;9.80;99.90
5578;DHT22;2811;51.900;10.734;2022-10-26T01:29:38;10.10;99.90
5578;DHT22;2811;51.900;10.734;2022-10-26T01:32:14;10.30;99.90
5578;DHT22;2811;51.900;10.734;2022-10-26T01:34:46;10.30;99.90
5578;DHT22;2811;51.900;10.734;2022-10-26T01:37:22;10.20;99.90
5578;DHT22;2811;51.900;10.734;2022-10-26T01:39:53;10.20;99.90
5578;DHT22;2811;51.900;10.734;2022-10-26T01:42:21;10.30;99.90
5578;DHT22;2811;51.900;10.734;2022-10-26T01:44:53;10.30;99.90
5578;DHT22;2811;51.900;10.734;2022-10-26T01:47:24;10.30;99.90
5578;DHT22;2811;51.900;10.734;2022-10-26T01:49:53;10.30;99.90
5578;DHT22;2811;51.900;10.734;2022-10-26T01:52:21;10.30;99.90
5578;DHT22;2811;51.900;10.734;2022-10-26T01:54:48;10.30;99.90
5578;DHT22;2811;51.900;10.734;2022-10-26T01:57:17;10.20;99.90
5578;DHT22;2811;51.900;10.734;2022-10-26T01:59:59;10.40;99.90
5578;DHT22;2811;51.900;10.734;2022-10-26T02:02:47;10.50;99.90
5578;DHT22;2811;51.900;10.734;2022-10-26T02:05:29;10.70;99.90
5578;DHT22;2811;51.900;10.734;2022-10-26T02:08:07;10.90;99.90
5578;DHT22;2811;51.900;10.734;2022-10-26T02:10:47;10.90;99.90
5578;DHT22;2811;51.900;10.734;2022-10-26T02:13:23;11.00;99.90
5578;DHT22;2811;51.900;10.734;2022-10-26T02:15:53;11.10;99.90
5578;DHT22;2811;51.900;10.734;2022-10-26T02:18:29;11.00;99.90
5578;DHT22;2811;51.900;10.734;2022-10-26T02:21:00;11.00;99.90
5578;DHT22;2811;51.900;10.734;2022-10-26T02:23:29;11.00;99.90
5578;DHT22;2811;51.900;10.734;2022-10-26T02:25:58;11.00;99.90
5578;DHT22;2811;51.900;10.734;2022-10-26T02:28:29;10.90;99.90
5578;DHT22;2811;51.900;10.734;2022-10-26T02:30:58;10.90;99.90
5578;DHT22;2811;51.900;10.734;2022-10-26T02:33:30;10.90;99.90
5578;DHT22;2811;51.900;10.734;2022-10-26T02:36:00;11.00;99.90
5578;DHT22;2811;51.900;10.734;2022-10-26T02:38:29;11.00;99.90
5578;DHT22;2811;51.900;10.734;2022-10-26T02:40:58;11.00;99.90
5578;DHT22;2811;51.900;10.734;2022-10-26T02:43:27;10.90;99.90
5578;DHT22;2811;51.900;10.734;2022-10-26T02:45:58;10.90;99.90
5578;DHT22;2811;51.900;10.734;2022-10-26T02:48:28;10.70;99.90
5578;DHT22;2811;51.900;10.734;2022-10-26T02:50:59;10.60;99.90
5578;DHT22;2811;51.900;10.734;2022-10-26T02:53:29;10.70;99.90
5578;DHT22;2811;51.900;10.734;2022-10-26T02:55:58;10.70;99.90
5578;DHT22;2811;51.900;10.734;2022-10-26T02:58:29;10.70;99.90
5578;DHT22;2811;51.900;10.734;2022-10-26T03:00:57;10.70;99.90
5578;DHT22;2811;51.900;10.734;2022-10-26T03:03:24;10.70;99.90
5578;DHT22;2811;51.900;10.734;2022-10-26T03:05:52;10.70;99.90
5578;DHT22;2811;51.900;10.734;2022-10-26T03:08:19;10.60;99.90
5578;DHT22;2811;51.900;10.734;2022-10-26T03:10:46;10.50;99.90
5578;DHT22;2811;51.900;10.734;2022-10-26T03:13:13;10.50;99.90
5578;DHT22;2811;51.900;10.734;2022-10-26T03:15:40;10.40;99.90
5578;DHT22;2811;51.900;10.734;2022-10-26T03:18:07;10.40;99.90
5578;DHT22;2811;51.900;10.734;2022-10-26T03:20:34;10.40;99.90
5578;DHT22;2811;51.900;10.734;2022-10-26T03:23:02;10.70;99.90
5578;DHT22;2811;51.900;10.734;2022-10-26T03:25:29;10.60;99.90
5578;DHT22;2811;51.900;10.734;2022-10-26T03:27:57;10.70;99.90
5578;DHT22;2811;51.900;10.734;2022-10-26T03:30:24;10.70;99.90
5578;DHT22;2811;51.900;10.734;2022-10-26T03:32:51;10.70;99.90
5578;DHT22;2811;51.900;10.734;2022-10-26T03:35:18;10.80;99.90
5578;DHT22;2811;51.900;10.734;2022-10-26T03:37:45;11.00;99.90
5578;DHT22;2811;51.900;10.734;2022-10-26T03:40:13;11.10;99.90
5578;DHT22;2811;51.900;10.734;2022-10-26T03:42:40;11.20;99.90
5578;DHT22;2811;51.900;10.734;2022-10-26T03:45:08;11.30;99.90
5578;DHT22;2811;51.900;10.734;2022-10-26T03:47:41;11.30;99.90
5578;DHT22;2811;51.900;10.734;2022-10-26T03:50:08;11.40;99.90
5578;DHT22;2811;51.900;10.734;2022-10-26T03:52:35;11.40;99.90
5578;DHT22;2811;51.900;10.734;2022-10-26T03:55:02;11.40;99.90
5578;DHT22;2811;51.900;10.734;2022-10-26T03:57:30;11.50;99.90
5578;DHT22;2811;51.900;10.734;2022-10-26T03:59:57;11.50;99.90
5578;DHT22;2811;51.900;10.734;2022-10-26T04:02:24;11.50;99.90
5578;DHT22;2811;51.900;10.734;2022-10-26T04:04:51;11.50;99.90
5578;DHT22;2811;51.900;10.734;2022-10-26T04:07:17;11.50;99.90
5578;DHT22;2811;51.900;10.734;2022-10-26T04:09:44;11.50;99.90
5578;DHT22;2811;51.900;10.734;2022-10-26T04:12:11;11.50;99.90
5578;DHT22;2811;51.900;10.734;2022-10-26T04:14:39;11.60;99.90
5578;DHT22;2811;51.900;10.734;2022-10-26T04:17:06;11.60;99.90
5578;DHT22;2811;51.900;10.734;2022-10-26T04:19:32;11.70;99.90
5578;DHT22;2811;51.900;10.734;2022-10-26T04:21:59;11.70;99.90
5578;DHT22;2811;51.900;10.734;2022-10-26T04:24:26;11.80;99.90
5578;DHT22;2811;51.900;10.734;2022-10-26T04:26:52;11.70;99.90
5578;DHT22;2811;51.900;10.734;2022-10-26T04:29:19;11.70;99.90
5578;DHT22;2811;51.900;10.734;2022-10-26T04:31:47;11.70;99.90
5578;DHT22;2811;51.900;10.734;2022-10-26T04:34:14;11.60;99.90
5578;DHT22;2811;51.900;10.734;2022-10-26T04:36:41;11.60;99.90
5578;DHT22;2811;51.900;10.734;2022-10-26T04:39:07;11.50;99.90
5578;DHT22;2811;51.900;10.734;2022-10-26T04:41:34;11.50;99.90
5578;DHT22;2811;51.900;10.734;2022-10-26T04:44:01;11.40;99.90
5578;DHT22;2811;51.900;10.734;2022-10-26T04:46:28;11.40;99.90
5578;DHT22;2811;51.900;10.734;2022-10-26T04:48:56;11.40;99.90
5578;DHT22;2811;51.900;10.734;2022-10-26T04:51:23;11.40;99.90
5578;DHT22;2811;51.900;10.734;2022-10-26T04:53:52;11.30;99.90
5578;DHT22;2811;51.900;10.734;2022-10-26T04:56:19;11.20;99.90
5578;DHT22;2811;51.900;10.734;2022-10-26T04:58:46;11.10;99.90
5578;DHT22;2811;51.900;10.734;2022-10-26T05:01:12;11.00;99.90
5578;DHT22;2811;51.900;10.734;2022-10-26T05:03:39;10.80;99.90
5578;DHT22;2811;51.900;10.734;2022-10-26T05:06:07;10.80;99.90
5578;DHT22;2811;51.900;10.734;2022-10-26T05:08:34;10.70;99.90
5578;DHT22;2811;51.900;10.734;2022-10-26T05:11:01;10.70;99.90
5578;DHT22;2811;51.900;10.734;2022-10-26T05:13:27;10.70;99.90
5578;DHT22;2811;51.900;10.734;2022-10-26T05:15:54;10.70;99.90
5578;DHT22;2811;51.900;10.734;2022-10-26T05:18:21;10.80;99.90
5578;DHT22;2811;51.900;10.734;2022-10-26T05:20:50;10.90;99.90
5578;DHT22;2811;51.900;10.734;2022-10-26T05:23:19;10.80;99.90
5578;DHT22;2811;51.900;10.734;2022-10-26T05:25:46;11.00;99.90
5578;DHT22;2811;51.900;10.734;2022-10-26T05:28:14;11.00;99.90
5578;DHT22;2811;51.900;10.734;2022-10-26T05:30:42;11.00;99.90
5578;DHT22;2811;51.900;10.734;2022-10-26T05:33:10;11.10;99.90
5578;DHT22;2811;51.900;10.734;2022-10-26T05:35:37;11.10;99.90
5578;DHT22;2811;51.900;10.734;2022-10-26T05:38:08;11.10;99.90
5578;DHT22;2811;51.900;10.734;2022-10-26T05:40:36;11.10;99.90
5578;DHT22;2811;51.900;10.734;2022-10-26T05:43:03;10.90;99.90
5578;DHT22;2811;51.900;10.734;2022-10-26T05:45:29;10.90;99.90
5578;DHT22;2811;51.900;10.734;2022-10-26T05:47:56;10.70;99.90
5578;DHT22;2811;51.900;10.734;2022-10-26T05:50:23;10.60;99.90
5578;DHT22;2811;51.900;10.734;2022-10-26T05:52:50;10.50;99.90
5578;DHT22;2811;51.900;10.734;2022-10-26T05:55:17;10.50;99.90
5578;DHT22;2811;51.900;10.734;2022-10-26T05:57:46;10.50;99.90
5578;DHT22;2811;51.900;10.734;2022-10-26T06:00:18;10.50;99.90
5578;DHT22;2811;51.900;10.734;2022-10-26T06:02:58;10.40;99.90
5578;DHT22;2811;51.900;10.734;2022-10-26T06:05:28;10.40;99.90
5578;DHT22;2811;51.900;10.734;2022-10-26T06:07:59;10.40;99.90
5578;DHT22;2811;51.900;10.734;2022-10-26T06:10:26;10.30;99.90
5578;DHT22;2811;51.900;10.734;2022-10-26T06:12:55;10.30;99.90
5578;DHT22;2811;51.900;10.734;2022-10-26T06:15:22;10.30;99.90
5578;DHT22;2811;51.900;10.734;2022-10-26T06:17:56;10.30;99.90
5578;DHT22;2811;51.900;10.734;2022-10-26T06:20:34;10.20;99.90
5578;DHT22;2811;51.900;10.734;2022-10-26T06:23:18;10.10;99.90
5578;DHT22;2811;51.900;10.734;2022-10-26T06:25:54;10.10;99.90
5578;DHT22;2811;51.900;10.734;2022-10-26T06:28:30;10.10;99.90
5578;DHT22;2811;51.900;10.734;2022-10-26T06:30:59;10.10;99.90
5578;DHT22;2811;51.900;10.734;2022-10-26T06:33:26;10.10;99.90
5578;DHT22;2811;51.900;10.734;2022-10-26T06:35:59;10.10;99.90
5578;DHT22;2811;51.900;10.734;2022-10-26T06:38:31;10.10;99.90
5578;DHT22;2811;51.900;10.734;2022-10-26T06:41:00;10.10;99.90
5578;DHT22;2811;51.900;10.734;2022-10-26T06:43:31;10.00;99.90
5578;DHT22;2811;51.900;10.734;2022-10-26T06:46:03;10.00;99.90
5578;DHT22;2811;51.900;10.734;2022-10-26T06:48:40;9.90;99.90
5578;DHT22;2811;51.900;10.734;2022-10-26T06:51:13;9.90;99.90
5578;DHT22;2811;51.900;10.734;2022-10-26T06:53:44;9.90;99.90
5578;DHT22;2811;51.900;10.734;2022-10-26T06:56:15;9.80;99.90
5578;DHT22;2811;51.900;10.734;2022-10-26T06:58:44;9.80;99.90
5578;DHT22;2811;51.900;10.734;2022-10-26T07:01:11;9.90;99.90
5578;DHT22;2811;51.900;10.734;2022-10-26T07:03:38;9.90;99.90
5578;DHT22;2811;51.900;10.734;2022-10-26T07:06:05;9.90;99.90
5578;DHT22;2811;51.900;10.734;2022-10-26T07:08:32;10.00;99.90
5578;DHT22;2811;51.900;10.734;2022-10-26T07:10:59;10.00;99.90
5578;DHT22;2811;51.900;10.734;2022-10-26T07:13:26;10.10;99.90
5578;DHT22;2811;51.900;10.734;2022-10-26T07:15:54;10.10;99.90
5578;DHT22;2811;51.900;10.734;2022-10-26T07:18:21;10.30;99.90
5578;DHT22;2811;51.900;10.734;2022-10-26T07:20:47;10.50;99.90
5578;DHT22;2811;51.900;10.734;2022-10-26T07:23:14;10.70;99.90
5578;DHT22;2811;51.900;10.734;2022-10-26T07:25:41;10.80;99.90
5578;DHT22;2811;51.900;10.734;2022-10-26T07:28:09;10.90;99.90
5578;DHT22;2811;51.900;10.734;2022-10-26T07:30:37;11.00;99.90
5578;DHT22;2811;51.900;10.734;2022-10-26T07:33:08;11.00;99.90
5578;DHT22;2811;51.900;10.734;2022-10-26T07:35:35;11.10;99.90
5578;DHT22;2811;51.900;10.734;2022-10-26T07:38:02;11.10;99.90
5578;DHT22;2811;51.900;10.734;2022-10-26T07:40:29;11.30;99.90
5578;DHT22;2811;51.900;10.734;2022-10-26T07:42:57;11.30;99.90
5578;DHT22;2811;51.900;10.734;2022-10-26T07:45:25;11.50;99.90
5578;DHT22;2811;51.900;10.734;2022-10-26T07:47:52;11.50;99.90
5578;DHT22;2811;51.900;10.734;2022-10-26T07:50:20;11.60;99.90
5578;DHT22;2811;51.900;10.734;2022-10-26T07:52:47;11.90;99.90
5578;DHT22;2811;51.900;10.734;2022-10-26T07:55:13;12.00;99.90
5578;DHT22;2811;51.900;10.734;2022-10-26T07:57:40;12.10;99.90
5578;DHT22;2811;51.900;10.734;2022-10-26T08:00:08;12.10;99.90
5578;DHT22;2811;51.900;10.734;2022-10-26T08:02:35;12.20;99.90
5578;DHT22;2811;51.900;10.734;2022-10-26T08:05:03;12.10;99.90
5578;DHT22;2811;51.900;10.734;2022-10-26T08:07:31;12.30;99.90
5578;DHT22;2811;51.900;10.734;2022-10-26T08:09:58;12.50;99.90
5578;DHT22;2811;51.900;10.734;2022-10-26T08:12:25;12.50;99.90
5578;DHT22;2811;51.900;10.734;2022-10-26T08:14:52;12.70;99.90
5578;DHT22;2811;51.900;10.734;2022-10-26T08:17:18;12.60;99.90
5578;DHT22;2811;51.900;10.734;2022-10-26T08:19:46;12.70;99.90
5578;DHT22;2811;51.900;10.734;2022-10-26T08:22:13;12.90;99.90
5578;DHT22;2811;51.900;10.734;2022-10-26T08:24:41;13.20;99.90
5578;DHT22;2811;51.900;10.734;2022-10-26T08:27:11;13.50;99.90
5578;DHT22;2811;51.900;10.734;2022-10-26T08:29:38;13.40;99.90
5578;DHT22;2811;51.900;10.734;2022-10-26T08:32:04;13.60;99.90
5578;DHT22;2811;51.900;10.734;2022-10-26T08:34:31;13.80;99.90
5578;DHT22;2811;51.900;10.734;2022-10-26T08:36:58;14.10;99.90
5578;DHT22;2811;51.900;10.734;2022-10-26T08:39:25;14.40;99.90
5578;DHT22;2811;51.900;10.734;2022-10-26T08:42:00;14.50;99.90
5578;DHT22;2811;51.900;10.734;2022-10-26T08:44:32;14.60;99.90
5578;DHT22;2811;51.900;10.734;2022-10-26T08:47:05;14.70;99.90
5578;DHT22;2811;51.900;10.734;2022-10-26T08:49:39;14.80;99.90
5578;DHT22;2811;51.900;10.734;2022-10-26T08:52:11;15.00;99.90
5578;DHT22;2811;51.900;10.734;2022-10-26T08:54:43;15.20;99.90
5578;DHT22;2811;51.900;10.734;2022-10-26T08:57:17;15.30;99.90
5578;DHT22;2811;51.900;10.734;2022-10-26T08:59:49;15.40;99.90
5578;DHT22;2811;51.900;10.734;2022-10-26T09:02:19;15.50;99.90
5578;DHT22;2811;51.900;10.734;2022-10-26T09:04:47;15.50;99.90
5578;DHT22;2811;51.900;10.734;2022-10-26T09:07:28;15.50;99.90
5578;DHT22;2811;51.900;10.734;2022-10-26T09:12:59;15.50;99.90
5578;DHT22;2811;51.900;10.734;2022-10-26T09:15:36;15.60;99.90
5578;DHT22;2811;51.900;10.734;2022-10-26T09:18:14;15.60;99.90
5578;DHT22;2811;51.900;10.734;2022-10-26T09:21:02;15.60;99.90
5578;DHT22;2811;51.900;10.734;2022-10-26T09:23:48;15.50;99.90
5578;DHT22;2811;51.900;10.734;2022-10-26T09:26:26;15.50;99.90
5578;DHT22;2811;51.900;10.734;2022-10-26T09:28:56;15.50;99.90
5578;DHT22;2811;51.900;10.734;2022-10-26T09:31:26;15.50;99.90
5578;DHT22;2811;51.900;10.734;2022-10-26T09:33:54;15.80;99.90
5578;DHT22;2811;51.900;10.734;2022-10-26T09:36:21;15.70;99.90
5578;DHT22;2811;51.900;10.734;2022-10-26T09:38:52;15.70;99.90
5578;DHT22;2811;51.900;10.734;2022-10-26T09:41:24;15.80;99.90
5578;DHT22;2811;51.900;10.734;2022-10-26T09:44:00;15.90;99.90
5578;DHT22;2811;51.900;10.734;2022-10-26T09:46:30;15.80;99.90
5578;DHT22;2811;51.900;10.734;2022-10-26T09:48:58;15.90;99.90
5578;DHT22;2811;51.900;10.734;2022-10-26T09:51:27;16.00;99.90
5578;DHT22;2811;51.900;10.734;2022-10-26T09:53:55;16.10;99.90
5578;DHT22;2811;51.900;10.734;2022-10-26T09:56:24;16.30;99.90
5578;DHT22;2811;51.900;10.734;2022-10-26T09:58:53;16.30;99.90
5578;DHT22;2811;51.900;10.734;2022-10-26T10:01:29;16.40;99.90
5578;DHT22;2811;51.900;10.734;2022-10-26T10:04:18;16.40;99.90
5578;DHT22;2811;51.900;10.734;2022-10-26T10:06:46;16.30;99.90
5578;DHT22;2811;51.900;10.734;2022-10-26T10:09:15;16.30;99.90
5578;DHT22;2811;51.900;10.734;2022-10-26T10:11:44;16.20;99.90
5578;DHT22;2811;51.900;10.734;2022-10-26T10:14:20;16.20;99.90
5578;DHT22;2811;51.900;10.734;2022-10-26T10:16:52;16.00;99.90
5578;DHT22;2811;51.900;10.734;2022-10-26T10:19:24;16.10;99.90
5578;DHT22;2811;51.900;10.734;2022-10-26T10:21:53;16.10;99.90
5578;DHT22;2811;51.900;10.734;2022-10-26T10:24:29;16.20;99.90
5578;DHT22;2811;51.900;10.734;2022-10-26T10:26:59;16.30;99.90
5578;DHT22;2811;51.900;10.734;2022-10-26T10:29:26;16.30;99.90
5578;DHT22;2811;51.900;10.734;2022-10-26T10:31:59;16.50;99.90
5578;DHT22;2811;51.900;10.734;2022-10-26T10:34:26;16.60;99.90
5578;DHT22;2811;51.900;10.734;2022-10-26T10:36:55;16.60;99.90
5578;DHT22;2811;51.900;10.734;2022-10-26T10:39:35;16.70;99.90
5578;DHT22;2811;51.900;10.734;2022-10-26T10:42:05;16.80;99.90
5578;DHT22;2811;51.900;10.734;2022-10-26T10:44:32;16.60;99.90
5578;DHT22;2811;51.900;10.734;2022-10-26T10:47:02;16.80;99.90
5578;DHT22;2811;51.900;10.734;2022-10-26T10:49:30;16.90;99.90
5578;DHT22;2811;51.900;10.734;2022-10-26T10:51:57;17.00;99.90
5578;DHT22;2811;51.900;10.734;2022-10-26T10:54:28;17.10;99.90
5578;DHT22;2811;51.900;10.734;2022-10-26T10:57:02;17.10;99.90
5578;DHT22;2811;51.900;10.734;2022-10-26T10:59:44;17.60;99.90
5578;DHT22;2811;51.900;10.734;2022-10-26T11:02:29;17.30;99.90
5578;DHT22;2811;51.900;10.734;2022-10-26T11:05:17;17.40;99.90
5578;DHT22;2811;51.900;10.734;2022-10-26T11:07:50;17.40;99.90
5578;DHT22;2811;51.900;10.734;2022-10-26T11:10:20;17.40;99.90
5578;DHT22;2811;51.900;10.734;2022-10-26T11:12:54;17.30;99.90
5578;DHT22;2811;51.900;10.734;2022-10-26T11:15:26;17.70;99.90
5578;DHT22;2811;51.900;10.734;2022-10-26T11:18:00;17.20;99.90
5578;DHT22;2811;51.900;10.734;2022-10-26T11:20:34;17.30;99.90
5578;DHT22;2811;51.900;10.734;2022-10-26T11:23:04;17.30;99.90
5578;DHT22;2811;51.900;10.734;2022-10-26T11:25:37;17.50;99.90
5578;DHT22;2811;51.900;10.734;2022-10-26T11:28:13;17.50;99.90
5578;DHT22;2811;51.900;10.734;2022-10-26T11:30:45;17.50;99.90
5578;DHT22;2811;51.900;10.734;2022-10-26T11:33:17;17.60;99.90
5578;DHT22;2811;51.900;10.734;2022-10-26T11:35:51;17.50;99.90
5578;DHT22;2811;51.900;10.734;2022-10-26T11:38:23;17.60;99.90
5578;DHT22;2811;51.900;10.734;2022-10-26T11:40:55;17.70;99.90
5578;DHT22;2811;51.900;10.734;2022-10-26T11:43:26;17.80;99.90
5578;DHT22;2811;51.900;10.734;2022-10-26T11:46:04;17.90;99.90
5578;DHT22;2811;51.900;10.734;2022-10-26T11:48:39;17.90;99.90
5578;DHT22;2811;51.900;10.734;2022-10-26T11:51:13;18.00;99.90
5578;DHT22;2811;51.900;10.734;2022-10-26T11:53:41;18.00;99.90
5578;DHT22;2811;51.900;10.734;2022-10-26T11:56:14;18.00;99.90
5578;DHT22;2811;51.900;10.734;2022-10-26T11:58:42;17.90;99.90
5578;DHT22;2811;51.900;10.734;2022-10-26T12:01:13;18.00;99.90
5578;DHT22;2811;51.900;10.734;2022-10-26T12:03:44;18.00;99.90
5578;DHT22;2811;51.900;10.734;2022-10-26T12:06:13;18.00;99.90
5578;DHT22;2811;51.900;10.734;2022-10-26T12:08:44;17.90;99.90
5578;DHT22;2811;51.900;10.734;2022-10-26T12:11:20;18.00;99.90
5578;DHT22;2811;51.900;10.734;2022-10-26T12:13:55;18.00;99.90
5578;DHT22;2811;51.900;10.734;2022-10-26T12:16:42;18.00;99.90
5578;DHT22;2811;51.900;10.734;2022-10-26T12:19:16;18.50;99.90
5578;DHT22;2811;51.900;10.734;2022-10-26T12:21:44;17.90;99.90
5578;DHT22;2811;51.900;10.734;2022-10-26T12:24:31;17.80;99.90
5578;DHT22;2811;51.900;10.734;2022-10-26T12:27:01;17.90;99.90
5578;DHT22;2811;51.900;10.734;2022-10-26T12:29:37;17.90;99.90
5578;DHT22;2811;51.900;10.734;2022-10-26T12:35:34;18.10;99.90
5578;DHT22;2811;51.900;10.734;2022-10-26T12:38:02;18.10;99.90
5578;DHT22;2811;51.900;10.734;2022-10-26T12:40:48;18.60;99.90
5578;DHT22;2811;51.900;10.734;2022-10-26T12:43:34;18.30;99.90
5578;DHT22;2811;51.900;10.734;2022-10-26T12:52:19;18.80;99.90
5578;DHT22;2811;51.900;10.734;2022-10-26T12:54:57;18.60;99.90
5578;DHT22;2811;51.900;10.734;2022-10-26T12:57:32;18.60;99.90
5578;DHT22;2811;51.900;10.734;2022-10-26T13:00:04;18.60;99.90
5578;DHT22;2811;51.900;10.734;2022-10-26T13:02:42;18.80;99.90
5578;DHT22;2811;51.900;10.734;2022-10-26T13:05:47;18.80;99.90
5578;DHT22;2811;51.900;10.734;2022-10-26T13:08:25;18.70;99.90
5578;DHT22;2811;51.900;10.734;2022-10-26T13:11:01;18.70;99.90
5578;DHT22;2811;51.900;10.734;2022-10-26T13:13:30;18.80;99.90
5578;DHT22;2811;51.900;10.734;2022-10-26T13:15:59;18.90;99.90
5578;DHT22;2811;51.900;10.734;2022-10-26T13:18:27;18.80;99.90
5578;DHT22;2811;51.900;10.734;2022-10-26T13:21:01;18.80;99.90
5578;DHT22;2811;51.900;10.734;2022-10-26T13:23:33;18.80;99.90
5578;DHT22;2811;51.900;10.734;2022-10-26T13:26:06;18.80;99.90
5578;DHT22;2811;51.900;10.734;2022-10-26T13:28:45;18.90;99.90
5578;DHT22;2811;51.900;10.734;2022-10-26T13:34:13;19.00;99.90
5578;DHT22;2811;51.900;10.734;2022-10-26T13:36:44;18.90;99.90
5578;DHT22;2811;51.900;10.734;2022-10-26T13:39:17;18.90;99.90
5578;DHT22;2811;51.900;10.734;2022-10-26T13:41:47;19.00;99.90
5578;DHT22;2811;51.900;10.734;2022-10-26T13:44:21;18.90;99.90
5578;DHT22;2811;51.900;10.734;2022-10-26T13:46:53;18.90;99.90
5578;DHT22;2811;51.900;10.734;2022-10-26T13:49:25;19.00;99.90
5578;DHT22;2811;51.900;10.734;2022-10-26T13:51:53;18.80;99.90
5578;DHT22;2811;51.900;10.734;2022-10-26T13:54:27;18.80;99.90
5578;DHT22;2811;51.900;10.734;2022-10-26T13:57:01;18.80;99.90
5578;DHT22;2811;51.900;10.734;2022-10-26T13:59:30;18.70;99.90
5578;DHT22;2811;51.900;10.734;2022-10-26T14:02:14;18.50;99.90
5578;DHT22;2811;51.900;10.734;2022-10-26T14:04:44;18.60;99.90
5578;DHT22;2811;51.900;10.734;2022-10-26T14:07:16;18.60;99.90
5578;DHT22;2811;51.900;10.734;2022-10-26T14:09:50;18.60;99.90
5578;DHT22;2811;51.900;10.734;2022-10-26T14:12:17;18.70;99.90
5578;DHT22;2811;51.900;10.734;2022-10-26T14:14:45;18.60;99.90
5578;DHT22;2811;51.900;10.734;2022-10-26T14:17:18;18.70;99.90
5578;DHT22;2811;51.900;10.734;2022-10-26T14:19:45;18.80;99.90
5578;DHT22;2811;51.900;10.734;2022-10-26T14:22:18;18.80;99.90
5578;DHT22;2811;51.900;10.734;2022-10-26T14:24:52;18.70;99.90
5578;DHT22;2811;51.900;10.734;2022-10-26T14:27:21;18.70;99.90
5578;DHT22;2811;51.900;10.734;2022-10-26T14:29:49;18.60;99.90
5578;DHT22;2811;51.900;10.734;2022-10-26T14:32:20;18.60;99.90
5578;DHT22;2811;51.900;10.734;2022-10-26T14:34:47;18.50;99.90
5578;DHT22;2811;51.900;10.734;2022-10-26T14:37:23;18.40;99.90
5578;DHT22;2811;51.900;10.734;2022-10-26T14:39:52;18.40;99.90
5578;DHT22;2811;51.900;10.734;2022-10-26T14:42:23;18.20;99.90
5578;DHT22;2811;51.900;10.734;2022-10-26T14:44:51;18.00;99.90
5578;DHT22;2811;51.900;10.734;2022-10-26T14:47:22;17.90;99.90
5578;DHT22;2811;51.900;10.734;2022-10-26T14:49:49;17.80;99.90
5578;DHT22;2811;51.900;10.734;2022-10-26T14:52:21;17.80;99.90
5578;DHT22;2811;51.900;10.734;2022-10-26T14:54:58;17.60;99.90
5578;DHT22;2811;51.900;10.734;2022-10-26T14:57:34;17.60;99.90
5578;DHT22;2811;51.900;10.734;2022-10-26T15:00:04;17.70;99.90
5578;DHT22;2811;51.900;10.734;2022-10-26T15:02:31;17.60;99.90
5578;DHT22;2811;51.900;10.734;2022-10-26T15:05:01;17.60;99.90
5578;DHT22;2811;51.900;10.734;2022-10-26T15:07:36;17.50;99.90
5578;DHT22;2811;51.900;10.734;2022-10-26T15:10:44;17.40;99.90
5578;DHT22;2811;51.900;10.734;2022-10-26T15:13:19;17.40;99.90
5578;DHT22;2811;51.900;10.734;2022-10-26T15:15:47;17.50;99.90
5578;DHT22;2811;51.900;10.734;2022-10-26T15:18:22;17.10;99.90
5578;DHT22;2811;51.900;10.734;2022-10-26T15:20:50;17.00;99.90
5578;DHT22;2811;51.900;10.734;2022-10-26T15:23:18;17.30;99.90
5578;DHT22;2811;51.900;10.734;2022-10-26T15:25:55;16.90;99.90
5578;DHT22;2811;51.900;10.734;2022-10-26T15:28:28;16.90;99.90
5578;DHT22;2811;51.900;10.734;2022-10-26T15:30:59;16.80;99.90
5578;DHT22;2811;51.900;10.734;2022-10-26T15:33:26;16.70;99.90
5578;DHT22;2811;51.900;10.734;2022-10-26T15:36:10;16.70;99.90
5578;DHT22;2811;51.900;10.734;2022-10-26T15:38:38;16.50;99.90
5578;DHT22;2811;51.900;10.734;2022-10-26T15:41:13;16.50;99.90
5578;DHT22;2811;51.900;10.734;2022-10-26T15:43:40;16.40;99.90
5578;DHT22;2811;51.900;10.734;2022-10-26T15:46:07;16.30;99.90
5578;DHT22;2811;51.900;10.734;2022-10-26T15:48:34;16.20;99.90
5578;DHT22;2811;51.900;10.734;2022-10-26T15:51:00;16.10;99.90
5578;DHT22;2811;51.900;10.734;2022-10-26T15:53:27;16.00;99.90
5578;DHT22;2811;51.900;10.734;2022-10-26T15:55:57;15.90;99.90
5578;DHT22;2811;51.900;10.734;2022-10-26T15:58:26;15.80;99.90
5578;DHT22;2811;51.900;10.734;2022-10-26T16:00:53;15.70;99.90
5578;DHT22;2811;51.900;10.734;2022-10-26T16:03:23;15.60;99.90
5578;DHT22;2811;51.900;10.734;2022-10-26T16:05:54;15.50;99.90
5578;DHT22;2811;51.900;10.734;2022-10-26T16:10:49;15.40;99.90
5578;DHT22;2811;51.900;10.734;2022-10-26T16:13:16;15.30;99.90
5578;DHT22;2811;51.900;10.734;2022-10-26T16:15:44;15.20;99.90
5578;DHT22;2811;51.900;10.734;2022-10-26T16:18:11;15.10;99.90
5578;DHT22;2811;51.900;10.734;2022-10-26T16:20:38;15.00;99.90
5578;DHT22;2811;51.900;10.734;2022-10-26T16:23:05;14.90;99.90
5578;DHT22;2811;51.900;10.734;2022-10-26T16:25:33;14.90;99.90
5578;DHT22;2811;51.900;10.734;2022-10-26T16:28:01;14.90;99.90